createdAt,value
2023-03-24T00:02:13.509Z,4.15
2023-03-24T00:07:16.277Z,3.97
2023-03-24T00:12:18.560Z,3.58
2023-03-24T00:17:25.330Z,4.10
2023-03-24T00:22:28.496Z,4.18
2023-03-24T00:27:31.276Z,3.70
2023-03-24T00:32:33.297Z,3.85
2023-03-24T00:37:39.299Z,3.97
2023-03-24T00:42:46.002Z,3.78
2023-03-24T00:47:49.970Z,3.85
2023-03-24T00:52:53.138Z,3.75
2023-03-24T00:57:55.063Z,3.40
2023-03-24T01:02:57.797Z,4.18
2023-03-24T01:08:03.360Z,3.17
2023-03-24T01:13:05.759Z,3.50
2023-03-24T01:18:10.160Z,3.20
2023-03-24T01:23:17.287Z,2.80
2023-03-24T01:28:24.882Z,3.50
2023-03-24T01:33:27.025Z,3.70
2023-03-24T01:38:29.272Z,3.92
2023-03-24T01:43:33.288Z,3.90
2023-03-24T01:48:47.271Z,3.83
2023-03-24T01:53:59.488Z,3.35
2023-03-24T01:59:06.380Z,3.30
2023-03-24T02:04:16.171Z,3.33
2023-03-24T02:09:18.354Z,3.22
2023-03-24T02:14:20.343Z,3.35
2023-03-24T02:19:57.371Z,3.20
2023-03-24T02:25:05.886Z,3.08
2023-03-24T02:35:56.182Z,3.42
2023-03-24T02:41:26.795Z,3.28
2023-03-24T02:47:03.290Z,3.20
2023-03-24T02:52:20.563Z,3.30
2023-03-24T02:57:36.760Z,3.40
2023-03-24T03:03:04.648Z,3.33
2023-03-24T03:08:09.448Z,3.25
2023-03-24T03:13:20.358Z,3.53
2023-03-24T03:18:29.190Z,3.92
2023-03-24T03:23:53.811Z,3.45
2023-03-24T03:29:06.467Z,3.10
2023-03-24T03:34:16.192Z,3.30
2023-03-24T03:39:28.962Z,3.45
2023-03-24T03:44:33.838Z,3.72
2023-03-24T03:49:36.714Z,5.35
2023-03-24T03:54:40.386Z,5.20
2023-03-24T03:59:42.350Z,5.07
2023-03-24T04:05:06.482Z,5.22
2023-03-24T04:10:38.514Z,5.60
2023-03-24T04:15:57.773Z,4.85
2023-03-24T04:21:33.336Z,5.45
2023-03-24T04:27:00.459Z,5.15
2023-03-24T04:32:14.422Z,5.32
2023-03-24T04:37:24.332Z,4.78
2023-03-24T04:42:39.310Z,5.05
2023-03-24T04:47:48.462Z,5.43
2023-03-24T04:53:08.252Z,4.53
2023-03-24T04:58:10.635Z,4.75
2023-03-24T05:03:14.178Z,4.63
2023-03-24T05:08:17.605Z,4.93
2023-03-24T05:13:19.470Z,6.68
2023-03-24T05:18:25.669Z,5.30
2023-03-24T05:23:27.789Z,4.72
2023-03-24T05:28:31.884Z,4.68
2023-03-24T05:33:34.474Z,3.97
2023-03-24T05:38:37.473Z,4.18
2023-03-24T05:43:39.702Z,4.25
2023-03-24T05:48:47.105Z,4.40
2023-03-24T05:53:54.193Z,3.53
2023-03-24T05:59:01.110Z,3.50
2023-03-24T06:04:23.926Z,3.58
2023-03-24T06:09:37.079Z,3.75
2023-03-24T06:14:40.635Z,4.00
2023-03-24T06:19:49.724Z,4.20
2023-03-24T06:25:12.910Z,3.67
2023-03-24T06:30:20.182Z,3.70
2023-03-24T06:35:22.400Z,4.35
2023-03-24T06:40:38.171Z,3.80
2023-03-24T06:45:41.409Z,3.60
2023-03-24T06:50:48.465Z,3.70
2023-03-24T06:55:51.380Z,3.80
2023-03-24T07:00:55.967Z,3.92
2023-03-24T07:06:10.609Z,4.03
2023-03-24T07:11:12.871Z,5.30
2023-03-24T07:16:23.092Z,3.65
2023-03-24T07:21:34.277Z,4.10
2023-03-24T07:26:36.344Z,3.25
2023-03-24T07:31:48.714Z,4.07
2023-03-24T07:36:50.996Z,3.90
2023-03-24T07:41:52.873Z,5.72
2023-03-24T07:47:15.339Z,5.35
2023-03-24T07:52:17.275Z,5.22
2023-03-24T07:57:23.564Z,5.75
2023-03-24T08:02:25.820Z,5.68
2023-03-24T08:07:53.556Z,5.43
2023-03-24T08:12:56.798Z,5.18
2023-03-24T08:17:58.678Z,4.70
2023-03-24T08:23:00.981Z,5.68
2023-03-24T08:28:03.044Z,5.20
2023-03-24T08:33:05.361Z,6.82
2023-03-24T08:38:09.252Z,7.60
2023-03-24T08:43:14.738Z,6.43
2023-03-24T08:48:16.506Z,5.40
2023-03-24T08:53:18.495Z,5.30
2023-03-24T08:58:21.371Z,6.60
2023-03-24T09:03:24.006Z,6.30
2023-03-24T09:08:28.574Z,7.70
2023-03-24T09:13:30.591Z,7.88
2023-03-24T09:18:32.641Z,6.60
2023-03-24T09:23:34.851Z,8.00
2023-03-24T09:28:36.659Z,7.60
2023-03-24T09:33:38.609Z,8.27
2023-03-24T09:38:40.327Z,8.00
2023-03-24T09:43:54.085Z,9.05
2023-03-24T09:48:57.607Z,9.13
2023-03-24T09:54:22.673Z,9.30
2023-03-24T09:59:37.694Z,7.82
2023-03-24T10:04:39.726Z,7.55
2023-03-24T10:09:41.515Z,7.57
2023-03-24T10:15:11.170Z,7.70
2023-03-24T10:20:18.744Z,8.57
2023-03-24T10:25:44.746Z,9.20
2023-03-24T10:30:49.504Z,7.00
2023-03-24T10:36:01.999Z,8.45
2023-03-24T10:41:04.743Z,7.10
2023-03-24T10:46:07.190Z,7.80
2023-03-24T10:51:31.779Z,9.13
2023-03-24T10:56:46.016Z,10.10
2023-03-24T11:01:48.810Z,10.07
2023-03-24T11:07:21.582Z,8.85
2023-03-24T11:12:27.324Z,10.98
2023-03-24T11:17:29.277Z,8.90
2023-03-24T11:22:31.091Z,8.18
2023-03-24T11:27:41.291Z,6.68
2023-03-24T11:32:47.303Z,7.47
2023-03-24T11:37:49.234Z,7.25
2023-03-24T11:43:03.212Z,7.57
2023-03-24T11:48:20.519Z,8.05
2023-03-24T11:53:25.443Z,7.72
2023-03-24T11:58:43.933Z,6.82
2023-03-24T12:03:46.463Z,7.63
2023-03-24T12:09:10.019Z,7.53
2023-03-24T12:14:15.719Z,6.80
2023-03-24T12:19:44.655Z,8.80
2023-03-24T12:24:52.358Z,9.52
2023-03-24T12:30:02.162Z,8.70
2023-03-24T12:35:13.497Z,8.82
2023-03-24T12:40:33.901Z,8.32
2023-03-24T12:45:53.214Z,8.13
2023-03-24T12:51:18.074Z,8.13
2023-03-24T12:56:44.627Z,7.60
2023-03-24T13:01:51.563Z,6.25
2023-03-24T13:06:56.595Z,7.72
2023-03-24T13:12:27.091Z,6.55
2023-03-24T13:17:56.903Z,5.90
2023-03-24T13:23:20.023Z,5.25
2023-03-24T13:28:29.337Z,5.13
2023-03-24T13:33:35.055Z,5.30
2023-03-24T13:38:43.990Z,4.97
2023-03-24T13:44:06.250Z,5.22
2023-03-24T13:49:15.473Z,6.88
2023-03-24T13:54:21.522Z,6.20
2023-03-24T13:59:49.426Z,7.38
2023-03-24T14:05:06.376Z,5.87
2023-03-24T14:10:14.027Z,6.30
2023-03-24T14:15:40.727Z,6.10
2023-03-24T14:20:57.807Z,5.88
2023-03-24T14:25:59.857Z,5.43
2023-03-24T14:31:03.520Z,5.55
2023-03-24T14:36:11.846Z,5.82
2023-03-24T14:41:26.623Z,6.43
2023-03-24T14:46:38.143Z,6.15
2023-03-24T14:52:03.721Z,5.00
2023-03-24T14:57:08.057Z,5.03
2023-03-24T15:02:22.374Z,5.47
2023-03-24T15:07:24.137Z,5.85
2023-03-24T15:12:26.034Z,5.78
2023-03-24T15:17:27.846Z,5.45
2023-03-24T15:22:41.404Z,5.00
2023-03-24T15:27:51.002Z,5.50
2023-03-24T15:32:52.918Z,6.13
2023-03-24T15:37:56.928Z,5.90
2023-03-24T15:43:01.543Z,6.30
2023-03-24T15:48:16.077Z,5.35
2023-03-24T15:53:17.809Z,6.15
2023-03-24T15:58:31.941Z,6.47
2023-03-24T16:03:34.884Z,5.70
2023-03-24T16:08:39.193Z,5.72
2023-03-24T16:13:44.931Z,5.20
2023-03-24T16:18:48.685Z,3.47
2023-03-24T16:23:52.600Z,1.98
2023-03-24T16:28:56.901Z,4.00
2023-03-24T16:33:59.279Z,2.20
2023-03-24T16:39:02.592Z,1.50
2023-03-24T16:44:04.384Z,17.10
2023-03-24T16:49:07.494Z,4.20
2023-03-24T16:54:09.330Z,1.95
2023-03-24T16:59:12.446Z,3.53
2023-03-24T17:04:17.359Z,2.40
2023-03-24T17:09:20.643Z,3.40
2023-03-24T17:14:22.835Z,4.32
2023-03-24T17:19:27.220Z,4.78
2023-03-24T17:24:32.734Z,6.03
2023-03-24T17:29:34.472Z,6.20
2023-03-24T17:34:37.780Z,3.20
2023-03-24T17:39:39.528Z,3.70
2023-03-24T17:44:41.243Z,5.03
2023-03-24T17:49:43.290Z,2.00
2023-03-24T17:54:45.888Z,2.00
2023-03-24T17:59:47.806Z,1.67
2023-03-24T18:04:49.594Z,2.10
2023-03-24T18:09:51.661Z,1.55
2023-03-24T18:14:53.783Z,1.80
2023-03-24T18:19:56.319Z,1.00
2023-03-24T18:24:58.314Z,1.40
2023-03-24T18:30:00.267Z,1.33
2023-03-24T18:35:02.415Z,1.63
2023-03-24T18:40:08.707Z,1.42
2023-03-24T18:45:17.245Z,1.20
2023-03-24T18:50:19.024Z,1.70
2023-03-24T18:55:21.813Z,1.30
2023-03-24T19:00:25.071Z,1.67
2023-03-24T19:05:26.795Z,1.45
2023-03-24T19:10:29.638Z,1.10
2023-03-24T19:15:31.712Z,1.10
2023-03-24T19:20:35.273Z,1.50
2023-03-24T19:25:37.044Z,1.30
2023-03-24T19:30:39.143Z,1.58
2023-03-24T19:35:41.137Z,1.77
2023-03-24T19:40:43.084Z,3.30
2023-03-24T19:45:52.878Z,3.67
2023-03-24T19:50:55.465Z,4.90
2023-03-24T19:55:58.171Z,2.38
2023-03-24T20:01:00.068Z,1.90
2023-03-24T20:06:09.709Z,2.30
2023-03-24T20:11:12.202Z,1.80
2023-03-24T20:16:14.035Z,1.40
2023-03-24T20:21:22.219Z,2.70
2023-03-24T20:26:24.064Z,2.03
2023-03-24T20:31:26.490Z,1.63
2023-03-24T20:36:28.294Z,1.70
2023-03-24T20:41:30.351Z,1.60
2023-03-24T20:46:32.289Z,1.60
2023-03-24T20:51:34.125Z,1.70
2023-03-24T20:56:35.982Z,1.40
2023-03-24T21:01:37.879Z,1.25
2023-03-24T21:06:39.693Z,1.38
2023-03-24T21:11:41.417Z,1.48
2023-03-24T21:16:43.647Z,1.30
2023-03-24T21:21:49.374Z,1.45
2023-03-24T21:26:51.420Z,1.80
2023-03-24T21:31:53.391Z,1.30
2023-03-24T21:36:55.681Z,1.35
2023-03-24T21:41:57.639Z,1.35
2023-03-24T21:47:00.384Z,1.40
2023-03-24T21:52:03.122Z,1.52
2023-03-24T21:57:04.958Z,1.20
2023-03-24T22:02:19.843Z,1.27
2023-03-24T22:07:22.509Z,1.40
2023-03-24T22:12:24.268Z,3.78
2023-03-24T22:17:26.505Z,1.20
2023-03-24T22:22:28.287Z,1.65
2023-03-24T22:27:30.988Z,1.50
2023-03-24T22:32:33.029Z,1.30
2023-03-24T22:37:34.960Z,1.27
2023-03-24T22:42:36.865Z,1.50
2023-03-24T22:47:38.745Z,1.50
2023-03-24T22:52:40.685Z,1.58
2023-03-24T22:57:42.435Z,1.33
2023-03-24T23:02:44.359Z,1.13
2023-03-24T23:07:47.369Z,1.48
2023-03-24T23:12:51.877Z,1.38
2023-03-24T23:17:53.788Z,1.60
2023-03-24T23:22:56.712Z,1.60
2023-03-24T23:27:58.967Z,1.83
2023-03-24T23:33:02.010Z,1.70
2023-03-24T23:38:05.302Z,1.77
2023-03-24T23:43:07.090Z,1.98
2023-03-24T23:48:08.929Z,2.08
2023-03-24T23:53:10.807Z,2.10
2023-03-24T23:58:12.599Z,2.20
